createdAt,value
2023-02-19T00:02:04.190Z,9.38
2023-02-19T00:04:32.663Z,9.43
2023-02-19T00:07:00.843Z,9.39
2023-02-19T00:09:29.377Z,9.47
2023-02-19T00:11:57.760Z,9.52
2023-02-19T00:14:26.442Z,9.43
2023-02-19T00:16:56.101Z,9.40
2023-02-19T00:19:25.069Z,9.34
2023-02-19T00:21:54.214Z,9.39
2023-02-19T00:24:23.351Z,9.37
2023-02-19T00:26:52.224Z,9.35
2023-02-19T00:29:22.728Z,9.34
2023-02-19T00:31:52.115Z,9.32
2023-02-19T00:34:21.833Z,9.35
2023-02-19T00:36:50.519Z,9.31
2023-02-19T00:39:21.307Z,9.31
2023-02-19T00:41:49.759Z,9.34
2023-02-19T00:44:18.250Z,9.33
2023-02-19T00:46:49.558Z,9.34
2023-02-19T00:49:21.876Z,9.36
2023-02-19T00:51:50.959Z,9.44
2023-02-19T00:54:19.695Z,9.39
2023-02-19T00:56:47.871Z,9.29
2023-02-19T00:59:16.545Z,9.34
2023-02-19T01:01:47.239Z,9.34
2023-02-19T01:04:16.532Z,9.28
2023-02-19T01:06:46.131Z,9.36
2023-02-19T01:09:14.310Z,9.35
2023-02-19T01:11:42.787Z,9.33
2023-02-19T01:14:12.018Z,9.34
2023-02-19T01:16:40.342Z,9.35
2023-02-19T01:19:08.927Z,9.35
2023-02-19T01:21:37.600Z,9.44
2023-02-19T01:24:07.635Z,9.37
2023-02-19T01:26:35.974Z,9.29
2023-02-19T01:29:05.835Z,9.18
2023-02-19T01:31:34.607Z,9.26
2023-02-19T01:34:06.447Z,9.30
2023-02-19T01:36:36.791Z,9.31
2023-02-19T01:39:07.998Z,9.33
2023-02-19T01:41:39.568Z,9.40
2023-02-19T01:44:28.884Z,9.26
2023-02-19T01:46:58.924Z,9.29
2023-02-19T01:49:31.113Z,9.27
2023-02-19T01:52:02.956Z,9.17
2023-02-19T01:54:37.344Z,9.25
2023-02-19T01:57:09.120Z,9.17
2023-02-19T01:59:38.252Z,9.21
2023-02-19T02:02:07.242Z,9.15
2023-02-19T02:04:36.240Z,9.18
2023-02-19T02:07:27.188Z,9.18
2023-02-19T02:10:15.366Z,9.24
2023-02-19T02:12:43.830Z,9.09
2023-02-19T02:15:12.692Z,9.17
2023-02-19T02:17:48.904Z,9.13
2023-02-19T02:20:34.602Z,9.13
2023-02-19T02:23:15.744Z,9.08
2023-02-19T02:26:07.424Z,9.10
2023-02-19T02:29:02.089Z,9.08
2023-02-19T02:31:37.107Z,9.07
2023-02-19T02:34:11.898Z,9.11
2023-02-19T02:36:45.157Z,9.06
2023-02-19T02:39:20.692Z,9.02
2023-02-19T02:42:12.786Z,9.10
2023-02-19T02:45:05.593Z,9.08
2023-02-19T02:47:43.131Z,9.12
2023-02-19T02:50:17.013Z,9.16
2023-02-19T02:53:04.913Z,9.19
2023-02-19T02:55:38.917Z,9.18
2023-02-19T02:58:09.288Z,9.17
2023-02-19T03:00:54.094Z,9.08
2023-02-19T03:03:25.453Z,8.99
2023-02-19T03:05:58.904Z,8.92
2023-02-19T03:08:31.175Z,9.02
2023-02-19T03:11:23.446Z,8.99
2023-02-19T03:14:12.843Z,9.12
2023-02-19T03:17:02.120Z,9.03
2023-02-19T03:19:35.766Z,8.96
2023-02-19T03:22:10.839Z,8.96
2023-02-19T03:25:01.809Z,8.97
2023-02-19T03:27:34.115Z,8.89
2023-02-19T03:30:06.173Z,8.87
2023-02-19T03:32:39.400Z,8.95
2023-02-19T03:35:15.356Z,9.06
2023-02-19T03:37:48.409Z,8.92
2023-02-19T03:40:18.159Z,9.00
2023-02-19T03:42:58.008Z,8.89
2023-02-19T03:45:34.501Z,8.83
2023-02-19T03:48:19.644Z,8.94
2023-02-19T03:50:56.227Z,8.92
2023-02-19T03:53:31.106Z,8.89
2023-02-19T03:56:10.965Z,8.92
2023-02-19T03:58:49.495Z,8.98
2023-02-19T04:01:23.223Z,8.96
2023-02-19T04:03:57.493Z,9.03
2023-02-19T04:06:32.822Z,8.97
2023-02-19T04:09:05.566Z,8.94
2023-02-19T04:11:36.144Z,8.95
2023-02-19T04:14:12.227Z,9.03
2023-02-19T04:16:45.432Z,9.02
2023-02-19T04:19:19.600Z,8.98
2023-02-19T04:21:50.413Z,8.93
2023-02-19T04:24:24.184Z,9.00
2023-02-19T04:26:53.069Z,8.95
2023-02-19T04:29:21.726Z,9.02
2023-02-19T04:31:51.328Z,8.88
2023-02-19T04:34:19.708Z,8.93
2023-02-19T04:36:49.693Z,8.83
2023-02-19T04:39:18.141Z,8.87
2023-02-19T04:41:46.428Z,8.86
2023-02-19T04:44:14.796Z,8.74
2023-02-19T04:46:43.303Z,8.70
2023-02-19T04:49:11.771Z,8.72
2023-02-19T04:51:40.872Z,8.63
2023-02-19T04:54:10.614Z,8.61
2023-02-19T04:56:38.566Z,8.59
2023-02-19T04:59:07.253Z,8.65
2023-02-19T05:01:35.594Z,8.58
2023-02-19T05:04:04.894Z,8.65
2023-02-19T05:06:33.454Z,8.63
2023-02-19T05:09:02.155Z,8.58
2023-02-19T05:11:32.092Z,8.61
2023-02-19T05:14:00.354Z,8.58
2023-02-19T05:16:28.901Z,8.60
2023-02-19T05:18:57.146Z,8.60
2023-02-19T05:21:25.735Z,8.66
2023-02-19T05:23:54.260Z,8.71
2023-02-19T05:26:24.552Z,8.80
2023-02-19T05:28:54.822Z,8.73
2023-02-19T05:31:23.545Z,8.71
2023-02-19T05:33:52.969Z,8.73
2023-02-19T05:36:25.199Z,8.68
2023-02-19T05:38:55.774Z,8.78
2023-02-19T05:41:26.436Z,8.93
2023-02-19T05:43:57.111Z,8.96
2023-02-19T05:46:27.600Z,8.94
2023-02-19T05:48:56.653Z,8.98
2023-02-19T05:51:26.840Z,9.01
2023-02-19T05:53:56.194Z,8.95
2023-02-19T05:56:30.865Z,8.81
2023-02-19T05:59:03.938Z,8.72
2023-02-19T06:01:32.424Z,8.61
2023-02-19T06:04:00.777Z,8.69
2023-02-19T06:06:29.573Z,8.61
2023-02-19T06:08:57.918Z,8.57
2023-02-19T06:11:28.021Z,8.52
2023-02-19T06:13:58.990Z,8.46
2023-02-19T06:16:36.414Z,8.46
2023-02-19T06:19:08.359Z,8.48
2023-02-19T06:21:41.823Z,8.37
2023-02-19T06:24:11.607Z,8.32
2023-02-19T06:26:41.433Z,8.24
2023-02-19T06:29:10.272Z,8.22
2023-02-19T06:31:40.354Z,8.24
2023-02-19T06:34:08.838Z,8.28
2023-02-19T06:36:37.529Z,8.21
2023-02-19T06:39:07.249Z,8.13
2023-02-19T06:41:36.130Z,8.09
2023-02-19T06:44:04.756Z,8.05
2023-02-19T06:46:33.303Z,8.03
2023-02-19T06:49:05.332Z,8.02
2023-02-19T06:51:33.866Z,7.97
2023-02-19T06:54:03.473Z,7.92
2023-02-19T06:56:32.570Z,7.98
2023-02-19T06:59:03.076Z,7.94
2023-02-19T07:01:32.783Z,7.94
2023-02-19T07:04:03.415Z,7.94
2023-02-19T07:06:32.441Z,8.03
2023-02-19T07:09:01.265Z,8.01
2023-02-19T07:11:32.652Z,8.08
2023-02-19T07:14:02.793Z,8.28
2023-02-19T07:16:32.091Z,8.22
2023-02-19T07:19:01.498Z,8.24
2023-02-19T07:21:31.375Z,8.26
2023-02-19T07:23:59.863Z,8.34
2023-02-19T07:26:28.248Z,8.28
2023-02-19T07:28:56.609Z,8.33
2023-02-19T07:31:26.093Z,8.40
2023-02-19T07:33:55.875Z,8.40
2023-02-19T07:36:25.866Z,8.50
2023-02-19T07:38:56.331Z,8.53
2023-02-19T07:41:25.315Z,8.67
2023-02-19T07:43:54.880Z,8.81
2023-02-19T07:46:24.307Z,8.82
2023-02-19T07:48:52.861Z,8.92
2023-02-19T07:51:21.689Z,9.03
2023-02-19T07:53:51.368Z,9.01
2023-02-19T07:56:21.911Z,9.03
2023-02-19T07:58:50.953Z,9.19
2023-02-19T08:01:41.138Z,9.22
2023-02-19T08:04:09.611Z,9.40
2023-02-19T08:06:38.265Z,9.53
2023-02-19T08:09:07.229Z,9.50
2023-02-19T08:11:54.531Z,9.62
2023-02-19T08:14:26.275Z,9.74
2023-02-19T08:16:55.376Z,9.82
2023-02-19T08:19:24.377Z,9.90
2023-02-19T08:21:53.447Z,9.92
2023-02-19T08:24:22.218Z,10.06
2023-02-19T08:26:51.938Z,10.02
2023-02-19T08:29:20.484Z,10.01
2023-02-19T08:31:49.347Z,10.05
2023-02-19T08:34:17.806Z,10.19
2023-02-19T08:36:46.125Z,10.13
2023-02-19T08:39:14.380Z,10.11
2023-02-19T08:41:42.681Z,10.13
2023-02-19T08:44:12.430Z,10.08
2023-02-19T08:46:40.916Z,10.15
2023-02-19T08:49:09.141Z,10.08
2023-02-19T08:51:38.540Z,10.12
2023-02-19T08:54:07.070Z,10.15
2023-02-19T08:56:35.236Z,10.16
2023-02-19T08:59:03.490Z,10.32
2023-02-19T09:01:33.144Z,10.28
2023-02-19T09:04:01.757Z,10.27
2023-02-19T09:06:30.077Z,10.17
2023-02-19T09:08:58.762Z,10.08
2023-02-19T09:11:27.011Z,10.06
2023-02-19T09:13:57.201Z,10.06
2023-02-19T09:16:25.742Z,10.09
2023-02-19T09:18:55.480Z,10.14
2023-02-19T09:21:23.668Z,10.21
2023-02-19T09:23:52.141Z,10.33
2023-02-19T09:26:21.220Z,10.35
2023-02-19T09:28:49.690Z,10.50
2023-02-19T09:31:18.121Z,10.45
2023-02-19T09:33:48.227Z,10.57
2023-02-19T09:36:19.645Z,10.70
2023-02-19T09:38:47.987Z,10.79
2023-02-19T09:41:23.659Z,10.88
2023-02-19T09:43:52.784Z,10.96
2023-02-19T09:46:31.854Z,11.02
2023-02-19T09:49:06.815Z,11.18
2023-02-19T09:51:40.774Z,11.26
2023-02-19T09:54:18.830Z,11.45
2023-02-19T09:56:47.603Z,11.63
2023-02-19T09:59:21.324Z,11.83
2023-02-19T10:01:53.221Z,12.08
2023-02-19T10:04:21.966Z,12.01
2023-02-19T10:06:53.600Z,11.92
2023-02-19T10:09:28.150Z,12.14
2023-02-19T10:11:57.940Z,12.14
2023-02-19T10:14:30.882Z,12.17
2023-02-19T10:17:02.214Z,12.27
2023-02-19T10:19:30.519Z,12.17
2023-02-19T10:22:01.055Z,12.09
2023-02-19T10:24:31.604Z,12.14
2023-02-19T10:26:59.956Z,12.13
2023-02-19T10:29:28.202Z,12.21
2023-02-19T10:32:18.798Z,12.04
2023-02-19T10:34:48.083Z,12.14
2023-02-19T10:37:19.584Z,12.13
2023-02-19T10:39:50.670Z,12.59
2023-02-19T10:42:21.602Z,12.98
2023-02-19T10:44:54.832Z,13.08
2023-02-19T10:47:26.361Z,12.98
2023-02-19T10:49:59.770Z,12.91
2023-02-19T10:52:34.579Z,12.59
2023-02-19T10:55:17.832Z,12.51
2023-02-19T10:57:50.439Z,12.40
2023-02-19T11:00:27.075Z,12.23
2023-02-19T11:03:20.783Z,12.01
2023-02-19T11:05:59.058Z,12.02
2023-02-19T11:08:29.528Z,11.93
2023-02-19T11:10:58.047Z,11.77
2023-02-19T11:13:32.378Z,11.74
2023-02-19T11:16:01.418Z,11.66
2023-02-19T11:18:32.067Z,11.54
2023-02-19T11:21:02.813Z,11.45
2023-02-19T11:23:35.937Z,11.46
2023-02-19T11:26:07.559Z,11.49
2023-02-19T11:28:38.435Z,11.46
2023-02-19T11:31:24.452Z,11.65
2023-02-19T11:33:57.639Z,11.92
2023-02-19T11:36:30.428Z,12.18
2023-02-19T11:39:18.017Z,12.44
2023-02-19T11:42:13.168Z,12.75
2023-02-19T11:44:50.767Z,12.72
2023-02-19T11:47:51.554Z,13.02
2023-02-19T11:50:26.737Z,13.19
2023-02-19T11:53:14.754Z,12.88
2023-02-19T11:55:54.738Z,12.75
2023-02-19T11:58:43.149Z,12.54
2023-02-19T12:01:24.693Z,12.02
2023-02-19T12:04:17.275Z,11.52
2023-02-19T12:06:56.786Z,11.17
2023-02-19T12:09:48.050Z,10.88
2023-02-19T12:12:40.614Z,10.88
2023-02-19T12:15:27.995Z,11.05
2023-02-19T12:18:22.463Z,11.07
2023-02-19T12:21:00.876Z,11.40
2023-02-19T12:23:47.003Z,11.76
2023-02-19T12:26:23.347Z,11.84
2023-02-19T12:29:13.322Z,11.88
2023-02-19T12:31:55.424Z,12.03
2023-02-19T12:34:49.216Z,12.40
2023-02-19T12:37:31.347Z,12.77
2023-02-19T12:40:16.163Z,12.81
2023-02-19T12:42:57.789Z,12.93
2023-02-19T12:45:33.449Z,12.97
2023-02-19T12:48:06.401Z,12.81
2023-02-19T12:50:38.498Z,12.87
2023-02-19T12:53:13.917Z,13.10
2023-02-19T12:55:45.786Z,13.23
2023-02-19T12:58:21.837Z,13.15
2023-02-19T13:00:58.934Z,13.26
2023-02-19T13:03:33.331Z,13.37
2023-02-19T13:06:10.517Z,13.38
2023-02-19T13:09:03.522Z,13.36
2023-02-19T13:11:39.992Z,13.32
2023-02-19T13:14:17.233Z,13.35
2023-02-19T13:16:52.211Z,13.29
2023-02-19T13:19:20.671Z,13.34
2023-02-19T13:22:14.969Z,13.17
2023-02-19T13:24:46.068Z,13.20
2023-02-19T13:27:32.411Z,12.85
2023-02-19T13:30:17.069Z,12.47
2023-02-19T13:33:00.162Z,12.33
2023-02-19T13:35:54.078Z,12.24
2023-02-19T13:38:22.613Z,12.33
2023-02-19T13:40:55.812Z,12.38
2023-02-19T13:43:27.644Z,12.48
2023-02-19T13:45:59.300Z,12.52
2023-02-19T13:48:32.266Z,12.60
2023-02-19T13:51:54.450Z,12.65
2023-02-19T13:54:27.247Z,12.54
2023-02-19T13:57:22.257Z,12.47
2023-02-19T13:59:51.473Z,12.35
2023-02-19T14:02:34.032Z,12.59
2023-02-19T14:05:10.772Z,12.71
2023-02-19T14:07:53.734Z,12.81
2023-02-19T14:11:09.069Z,12.81
2023-02-19T14:14:07.136Z,12.67
2023-02-19T14:16:55.744Z,12.57
2023-02-19T14:19:46.847Z,12.34
2023-02-19T14:22:55.470Z,12.07
2023-02-19T14:25:38.255Z,11.92
2023-02-19T14:28:18.647Z,11.96
2023-02-19T14:30:51.871Z,11.86
2023-02-19T14:33:25.053Z,11.80
2023-02-19T14:35:56.922Z,11.80
2023-02-19T14:38:31.277Z,11.84
2023-02-19T14:41:02.298Z,11.86
2023-02-19T14:43:32.337Z,11.93
2023-02-19T14:46:05.054Z,11.94
2023-02-19T14:48:36.579Z,11.90
2023-02-19T14:51:09.313Z,11.99
2023-02-19T14:53:40.846Z,12.00
2023-02-19T14:56:21.758Z,11.92
2023-02-19T14:59:23.230Z,11.90
2023-02-19T15:01:59.519Z,11.82
2023-02-19T15:04:31.437Z,11.81
2023-02-19T15:07:04.314Z,11.76
2023-02-19T15:09:38.502Z,11.72
2023-02-19T15:12:09.359Z,11.76
2023-02-19T15:14:37.785Z,11.76
2023-02-19T15:17:07.485Z,11.70
2023-02-19T15:19:39.463Z,11.67
2023-02-19T15:22:08.968Z,11.69
2023-02-19T15:24:37.716Z,11.60
2023-02-19T15:27:08.240Z,11.60
2023-02-19T15:29:47.177Z,11.49
2023-02-19T15:32:18.644Z,11.44
2023-02-19T15:34:56.276Z,11.44
2023-02-19T15:37:26.481Z,11.35
2023-02-19T15:39:56.667Z,11.29
2023-02-19T15:42:29.762Z,11.26
2023-02-19T15:45:04.082Z,11.29
2023-02-19T15:47:38.575Z,11.28
2023-02-19T15:50:11.384Z,11.16
2023-02-19T15:52:46.865Z,11.23
2023-02-19T15:55:27.511Z,11.12
2023-02-19T15:58:04.004Z,11.16
2023-02-19T16:00:38.486Z,11.07
2023-02-19T16:03:10.897Z,11.05
2023-02-19T16:05:41.902Z,11.00
2023-02-19T16:08:19.732Z,11.00
2023-02-19T16:10:56.185Z,10.95
2023-02-19T16:13:27.558Z,10.88
2023-02-19T16:16:03.615Z,10.83
2023-02-19T16:18:32.474Z,10.75
2023-02-19T16:21:01.508Z,10.80
2023-02-19T16:23:31.326Z,10.76
2023-02-19T16:26:01.218Z,10.75
2023-02-19T16:28:36.260Z,10.66
2023-02-19T16:31:06.535Z,10.60
2023-02-19T16:33:40.941Z,10.59
2023-02-19T16:36:26.323Z,10.51
2023-02-19T16:39:15.459Z,10.50
2023-02-19T16:42:16.841Z,10.38
2023-02-19T16:44:48.431Z,10.28
2023-02-19T16:47:25.430Z,10.18
2023-02-19T16:49:53.882Z,10.09
2023-02-19T16:52:22.835Z,10.08
2023-02-19T16:54:51.440Z,10.10
2023-02-19T16:57:21.337Z,10.05
2023-02-19T16:59:53.079Z,10.04
2023-02-19T17:02:25.260Z,9.98
2023-02-19T17:04:55.950Z,10.02
2023-02-19T17:07:24.517Z,9.97
2023-02-19T17:09:52.957Z,10.06
2023-02-19T17:12:21.941Z,10.00
2023-02-19T17:14:51.637Z,10.02
2023-02-19T17:17:20.252Z,9.99
2023-02-19T17:19:48.523Z,9.95
2023-02-19T17:22:18.014Z,9.99
2023-02-19T17:24:48.221Z,9.98
2023-02-19T17:27:16.512Z,9.99
2023-02-19T17:29:45.005Z,9.95
2023-02-19T17:32:15.802Z,9.87
2023-02-19T17:34:44.453Z,9.78
2023-02-19T17:37:12.804Z,9.73
2023-02-19T17:39:41.053Z,9.71
2023-02-19T17:42:09.661Z,9.65
2023-02-19T17:44:38.011Z,9.68
2023-02-19T17:47:06.589Z,9.62
2023-02-19T17:49:36.832Z,9.56
2023-02-19T17:52:05.649Z,9.52
2023-02-19T17:54:34.350Z,9.52
2023-02-19T17:57:02.812Z,9.53
2023-02-19T17:59:31.454Z,9.55
2023-02-19T18:01:59.812Z,9.53
2023-02-19T18:04:28.997Z,9.54
2023-02-19T18:06:58.798Z,9.52
2023-02-19T18:09:27.120Z,9.55
2023-02-19T18:11:55.808Z,9.55
2023-02-19T18:14:24.617Z,9.57
2023-02-19T18:16:52.938Z,9.47
2023-02-19T18:19:23.124Z,9.50
2023-02-19T18:21:51.551Z,9.50
2023-02-19T18:24:22.900Z,9.44
2023-02-19T18:26:51.316Z,9.43
2023-02-19T18:29:19.962Z,9.39
2023-02-19T18:31:48.536Z,9.35
2023-02-19T18:34:19.441Z,9.33
2023-02-19T18:36:48.296Z,9.30
2023-02-19T18:39:17.413Z,9.30
2023-02-19T18:41:51.452Z,9.32
2023-02-19T18:44:20.683Z,9.33
2023-02-19T18:46:49.062Z,9.35
2023-02-19T18:49:18.740Z,9.33
2023-02-19T18:51:47.302Z,9.37
2023-02-19T18:54:15.900Z,9.38
2023-02-19T18:56:45.061Z,9.40
2023-02-19T18:59:15.606Z,9.39
2023-02-19T19:01:45.064Z,9.36
2023-02-19T19:04:13.659Z,9.38
2023-02-19T19:06:42.001Z,9.35
2023-02-19T19:09:10.520Z,9.35
2023-02-19T19:11:39.186Z,9.29
2023-02-19T19:14:07.563Z,9.28
2023-02-19T19:16:37.973Z,9.25
2023-02-19T19:19:06.630Z,9.23
2023-02-19T19:21:35.009Z,9.18
2023-02-19T19:24:03.498Z,9.14
2023-02-19T19:26:31.967Z,9.14
2023-02-19T19:29:00.289Z,9.13
2023-02-19T19:31:36.289Z,9.12
2023-02-19T19:34:06.066Z,9.07
2023-02-19T19:36:34.616Z,9.09
2023-02-19T19:39:02.956Z,9.07
2023-02-19T19:41:31.993Z,9.07
2023-02-19T19:44:03.453Z,9.02
2023-02-19T19:46:32.658Z,9.00
2023-02-19T19:49:01.189Z,8.97
2023-02-19T19:51:33.642Z,8.92
2023-02-19T19:54:04.172Z,8.93
2023-02-19T19:56:32.782Z,8.97
2023-02-19T19:59:01.158Z,8.97
2023-02-19T20:01:29.825Z,8.97
2023-02-19T20:03:58.117Z,8.97
2023-02-19T20:06:27.978Z,8.94
2023-02-19T20:08:58.303Z,8.91
2023-02-19T20:11:27.238Z,8.92
2023-02-19T20:13:56.773Z,8.95
2023-02-19T20:16:26.698Z,8.93
2023-02-19T20:18:55.319Z,8.91
2023-02-19T20:21:23.756Z,8.93
2023-02-19T20:23:52.236Z,8.94
2023-02-19T20:26:26.577Z,8.93
2023-02-19T20:28:55.302Z,8.92
2023-02-19T20:31:24.015Z,8.89
2023-02-19T20:33:52.761Z,8.90
2023-02-19T20:36:21.296Z,8.88
2023-02-19T20:38:50.614Z,8.93
2023-02-19T20:41:19.049Z,8.89
2023-02-19T20:43:48.683Z,8.81
2023-02-19T20:46:17.154Z,8.82
2023-02-19T20:48:45.748Z,8.80
2023-02-19T20:51:14.313Z,8.78
2023-02-19T20:53:43.459Z,8.78
2023-02-19T20:56:12.640Z,8.78
2023-02-19T20:58:42.231Z,8.76
2023-02-19T21:01:12.654Z,8.81
2023-02-19T21:03:41.060Z,8.85
2023-02-19T21:06:09.765Z,8.83
2023-02-19T21:08:38.239Z,8.80
2023-02-19T21:11:06.889Z,8.81
2023-02-19T21:13:35.080Z,8.75
2023-02-19T21:16:03.607Z,8.77
2023-02-19T21:18:33.105Z,8.78
2023-02-19T21:21:01.347Z,8.77
2023-02-19T21:23:29.866Z,8.71
2023-02-19T21:25:58.108Z,8.71
2023-02-19T21:28:26.434Z,8.71
2023-02-19T21:30:55.050Z,8.73
2023-02-19T21:33:23.409Z,8.73
2023-02-19T21:35:52.921Z,8.74
2023-02-19T21:38:21.100Z,8.67
2023-02-19T21:40:49.363Z,8.73
2023-02-19T21:43:17.743Z,8.67
2023-02-19T21:45:45.975Z,8.66
2023-02-19T21:48:14.409Z,8.67
2023-02-19T21:50:45.546Z,8.67
2023-02-19T21:53:15.306Z,8.67
2023-02-19T21:55:56.569Z,8.63
2023-02-19T21:58:26.999Z,8.59
2023-02-19T22:00:56.190Z,8.59
2023-02-19T22:03:26.395Z,8.57
2023-02-19T22:05:54.765Z,8.56
2023-02-19T22:08:24.825Z,8.55
2023-02-19T22:10:53.187Z,8.57
2023-02-19T22:13:21.392Z,8.53
2023-02-19T22:15:49.560Z,8.50
2023-02-19T22:18:17.949Z,8.49
2023-02-19T22:20:46.226Z,8.44
2023-02-19T22:23:14.376Z,8.43
2023-02-19T22:25:44.528Z,8.43
2023-02-19T22:28:12.663Z,8.42
2023-02-19T22:30:41.092Z,8.44
2023-02-19T22:33:09.622Z,8.42
2023-02-19T22:35:38.026Z,8.40
2023-02-19T22:38:06.273Z,8.43
2023-02-19T22:40:34.639Z,8.41
2023-02-19T22:43:04.564Z,8.40
2023-02-19T22:45:33.059Z,8.41
2023-02-19T22:48:01.341Z,8.39
2023-02-19T22:50:29.519Z,8.43
2023-02-19T22:52:57.752Z,8.40
2023-02-19T22:55:26.320Z,8.38
2023-02-19T22:57:55.228Z,8.36
2023-02-19T23:00:24.733Z,8.34
2023-02-19T23:02:53.394Z,8.32
2023-02-19T23:05:23.659Z,8.33
2023-02-19T23:07:52.299Z,8.33
2023-02-19T23:10:20.552Z,8.31
2023-02-19T23:12:48.826Z,8.29
2023-02-19T23:15:17.014Z,8.27
2023-02-19T23:17:46.542Z,8.26
2023-02-19T23:20:15.126Z,8.26
2023-02-19T23:22:43.527Z,8.30
2023-02-19T23:25:11.833Z,8.29
2023-02-19T23:27:40.530Z,8.28
2023-02-19T23:30:09.697Z,8.29
2023-02-19T23:32:38.464Z,8.29
2023-02-19T23:35:09.147Z,8.27
2023-02-19T23:37:37.473Z,8.25
2023-02-19T23:40:06.510Z,8.24
2023-02-19T23:42:34.735Z,8.25
2023-02-19T23:45:03.349Z,8.26
2023-02-19T23:47:31.673Z,8.24
2023-02-19T23:50:00.182Z,8.26
2023-02-19T23:52:29.692Z,8.42
2023-02-19T23:54:58.163Z,8.43
2023-02-19T23:57:26.915Z,8.39
2023-02-19T23:59:54.986Z,8.37
